sensor_id;sensor_type;location;lat;lon;timestamp;temperature;humidity
77613;DHT22;66777;52.282;5.960;2023-07-13T00:01:45;19.10;67.50
77613;DHT22;66777;52.282;5.960;2023-07-13T00:04:16;19.10;67.50
77613;DHT22;66777;52.282;5.960;2023-07-13T00:06:42;19.00;67.70
77613;DHT22;66777;52.282;5.960;2023-07-13T00:09:14;19.00;67.70
77613;DHT22;66777;52.282;5.960;2023-07-13T00:11:41;19.00;67.70
77613;DHT22;66777;52.282;5.960;2023-07-13T00:14:07;19.00;67.80
77613;DHT22;66777;52.282;5.960;2023-07-13T00:16:35;19.00;67.80
77613;DHT22;66777;52.282;5.960;2023-07-13T00:19:01;19.00;67.90
77613;DHT22;66777;52.282;5.960;2023-07-13T00:21:27;19.00;68.00
77613;DHT22;66777;52.282;5.960;2023-07-13T00:23:52;19.00;68.00
77613;DHT22;66777;52.282;5.960;2023-07-13T00:26:18;19.00;68.20
77613;DHT22;66777;52.282;5.960;2023-07-13T00:28:44;19.00;68.20
77613;DHT22;66777;52.282;5.960;2023-07-13T00:31:11;19.00;68.20
77613;DHT22;66777;52.282;5.960;2023-07-13T00:33:37;18.90;68.20
77613;DHT22;66777;52.282;5.960;2023-07-13T00:36:03;18.90;68.40
77613;DHT22;66777;52.282;5.960;2023-07-13T00:38:29;18.90;68.40
77613;DHT22;66777;52.282;5.960;2023-07-13T00:40:55;18.90;68.40
77613;DHT22;66777;52.282;5.960;2023-07-13T00:43:22;18.90;68.50
77613;DHT22;66777;52.282;5.960;2023-07-13T00:48:24;18.90;68.60
77613;DHT22;66777;52.282;5.960;2023-07-13T00:50:53;18.90;68.70
77613;DHT22;66777;52.282;5.960;2023-07-13T00:53:20;18.90;68.70
77613;DHT22;66777;52.282;5.960;2023-07-13T00:55:47;18.90;68.70
77613;DHT22;66777;52.282;5.960;2023-07-13T00:58:14;18.90;68.80
77613;DHT22;66777;52.282;5.960;2023-07-13T01:00:41;18.80;68.80
77613;DHT22;66777;52.282;5.960;2023-07-13T01:03:07;18.80;68.90
77613;DHT22;66777;52.282;5.960;2023-07-13T01:05:34;18.80;68.90
77613;DHT22;66777;52.282;5.960;2023-07-13T01:08:01;18.80;68.90
77613;DHT22;66777;52.282;5.960;2023-07-13T01:10:27;18.80;69.00
77613;DHT22;66777;52.282;5.960;2023-07-13T01:12:54;18.80;69.00
77613;DHT22;66777;52.282;5.960;2023-07-13T01:15:52;18.80;69.00
77613;DHT22;66777;52.282;5.960;2023-07-13T01:18:27;18.80;69.00
77613;DHT22;66777;52.282;5.960;2023-07-13T01:21:00;18.80;69.10
77613;DHT22;66777;52.282;5.960;2023-07-13T01:23:27;18.80;69.10
77613;DHT22;66777;52.282;5.960;2023-07-13T01:25:53;18.80;69.20
77613;DHT22;66777;52.282;5.960;2023-07-13T01:28:21;18.80;69.10
77613;DHT22;66777;52.282;5.960;2023-07-13T01:30:47;18.70;69.10
77613;DHT22;66777;52.282;5.960;2023-07-13T01:33:14;18.70;69.20
77613;DHT22;66777;52.282;5.960;2023-07-13T01:35:41;18.70;69.20
77613;DHT22;66777;52.282;5.960;2023-07-13T01:38:08;18.70;69.20
77613;DHT22;66777;52.282;5.960;2023-07-13T01:40:35;18.60;69.20
77613;DHT22;66777;52.282;5.960;2023-07-13T01:43:01;18.60;69.20
77613;DHT22;66777;52.282;5.960;2023-07-13T01:45:27;18.60;69.30
77613;DHT22;66777;52.282;5.960;2023-07-13T01:47:52;18.60;69.40
77613;DHT22;66777;52.282;5.960;2023-07-13T01:50:18;18.60;69.50
77613;DHT22;66777;52.282;5.960;2023-07-13T01:52:44;18.60;69.40
77613;DHT22;66777;52.282;5.960;2023-07-13T01:55:09;18.60;69.40
77613;DHT22;66777;52.282;5.960;2023-07-13T01:57:35;18.60;69.30
77613;DHT22;66777;52.282;5.960;2023-07-13T02:00:06;18.50;69.30
77613;DHT22;66777;52.282;5.960;2023-07-13T02:02:32;18.50;69.30
77613;DHT22;66777;52.282;5.960;2023-07-13T02:04:58;18.50;69.30
77613;DHT22;66777;52.282;5.960;2023-07-13T02:07:23;18.50;69.30
77613;DHT22;66777;52.282;5.960;2023-07-13T02:09:49;18.50;69.30
77613;DHT22;66777;52.282;5.960;2023-07-13T02:12:15;18.40;69.20
77613;DHT22;66777;52.282;5.960;2023-07-13T02:14:40;18.40;69.20
77613;DHT22;66777;52.282;5.960;2023-07-13T02:17:06;18.40;69.20
77613;DHT22;66777;52.282;5.960;2023-07-13T02:19:32;18.40;69.20
77613;DHT22;66777;52.282;5.960;2023-07-13T02:21:58;18.40;69.20
77613;DHT22;66777;52.282;5.960;2023-07-13T02:24:24;18.40;69.30
77613;DHT22;66777;52.282;5.960;2023-07-13T02:26:49;18.40;69.30
77613;DHT22;66777;52.282;5.960;2023-07-13T02:29:15;18.40;69.30
77613;DHT22;66777;52.282;5.960;2023-07-13T02:31:41;18.40;69.30
77613;DHT22;66777;52.282;5.960;2023-07-13T02:34:06;18.40;69.30
77613;DHT22;66777;52.282;5.960;2023-07-13T02:36:32;18.30;69.40
77613;DHT22;66777;52.282;5.960;2023-07-13T02:39:02;18.30;69.30
77613;DHT22;66777;52.282;5.960;2023-07-13T02:41:28;18.30;69.30
77613;DHT22;66777;52.282;5.960;2023-07-13T02:43:54;18.30;69.40
77613;DHT22;66777;52.282;5.960;2023-07-13T02:46:28;18.20;69.40
77613;DHT22;66777;52.282;5.960;2023-07-13T02:48:54;18.20;69.40
77613;DHT22;66777;52.282;5.960;2023-07-13T02:51:20;18.20;69.40
77613;DHT22;66777;52.282;5.960;2023-07-13T02:53:45;18.10;69.50
77613;DHT22;66777;52.282;5.960;2023-07-13T02:56:12;18.10;69.50
77613;DHT22;66777;52.282;5.960;2023-07-13T02:58:37;18.10;69.60
77613;DHT22;66777;52.282;5.960;2023-07-13T03:01:12;18.10;69.70
77613;DHT22;66777;52.282;5.960;2023-07-13T03:03:38;18.10;69.60
77613;DHT22;66777;52.282;5.960;2023-07-13T03:06:05;18.10;69.60
77613;DHT22;66777;52.282;5.960;2023-07-13T03:08:33;18.10;69.70
77613;DHT22;66777;52.282;5.960;2023-07-13T03:11:04;18.10;69.70
77613;DHT22;66777;52.282;5.960;2023-07-13T03:13:31;18.10;69.90
77613;DHT22;66777;52.282;5.960;2023-07-13T03:15:57;18.10;69.80
77613;DHT22;66777;52.282;5.960;2023-07-13T03:18:22;18.10;69.80
77613;DHT22;66777;52.282;5.960;2023-07-13T03:20:51;18.00;69.90
77613;DHT22;66777;52.282;5.960;2023-07-13T03:23:18;18.10;69.90
77613;DHT22;66777;52.282;5.960;2023-07-13T03:25:44;18.00;70.00
77613;DHT22;66777;52.282;5.960;2023-07-13T03:28:11;18.00;69.90
77613;DHT22;66777;52.282;5.960;2023-07-13T03:30:37;18.00;70.00
77613;DHT22;66777;52.282;5.960;2023-07-13T03:33:03;18.00;70.10
77613;DHT22;66777;52.282;5.960;2023-07-13T03:35:29;18.00;70.10
77613;DHT22;66777;52.282;5.960;2023-07-13T03:37:54;18.00;70.20
77613;DHT22;66777;52.282;5.960;2023-07-13T03:40:20;18.00;70.20
77613;DHT22;66777;52.282;5.960;2023-07-13T03:42:46;18.00;70.30
77613;DHT22;66777;52.282;5.960;2023-07-13T03:45:12;18.00;70.40
77613;DHT22;66777;52.282;5.960;2023-07-13T03:47:38;17.80;70.50
77613;DHT22;66777;52.282;5.960;2023-07-13T03:50:04;17.80;70.60
77613;DHT22;66777;52.282;5.960;2023-07-13T03:52:30;17.90;70.60
77613;DHT22;66777;52.282;5.960;2023-07-13T03:54:55;17.90;70.60
77613;DHT22;66777;52.282;5.960;2023-07-13T03:57:21;18.00;70.70
77613;DHT22;66777;52.282;5.960;2023-07-13T03:59:47;18.00;70.70
77613;DHT22;66777;52.282;5.960;2023-07-13T04:02:13;18.00;70.70
77613;DHT22;66777;52.282;5.960;2023-07-13T04:04:38;18.00;70.80
77613;DHT22;66777;52.282;5.960;2023-07-13T04:07:06;17.90;70.80
77613;DHT22;66777;52.282;5.960;2023-07-13T04:09:34;17.90;71.00
77613;DHT22;66777;52.282;5.960;2023-07-13T04:12:00;17.90;71.00
77613;DHT22;66777;52.282;5.960;2023-07-13T04:14:25;18.00;71.00
77613;DHT22;66777;52.282;5.960;2023-07-13T04:16:51;18.00;71.00
77613;DHT22;66777;52.282;5.960;2023-07-13T04:19:17;18.00;71.10
77613;DHT22;66777;52.282;5.960;2023-07-13T04:21:43;18.00;71.10
77613;DHT22;66777;52.282;5.960;2023-07-13T04:24:09;17.90;71.20
77613;DHT22;66777;52.282;5.960;2023-07-13T04:26:35;17.90;71.20
77613;DHT22;66777;52.282;5.960;2023-07-13T04:29:04;17.90;71.30
77613;DHT22;66777;52.282;5.960;2023-07-13T04:31:30;17.90;71.40
77613;DHT22;66777;52.282;5.960;2023-07-13T04:33:57;18.00;71.40
77613;DHT22;66777;52.282;5.960;2023-07-13T04:36:22;17.90;71.40
77613;DHT22;66777;52.282;5.960;2023-07-13T04:38:48;18.00;71.40
77613;DHT22;66777;52.282;5.960;2023-07-13T04:41:14;17.90;71.50
77613;DHT22;66777;52.282;5.960;2023-07-13T04:43:41;17.90;71.50
77613;DHT22;66777;52.282;5.960;2023-07-13T04:46:10;17.80;71.70
77613;DHT22;66777;52.282;5.960;2023-07-13T04:48:37;17.90;71.70
77613;DHT22;66777;52.282;5.960;2023-07-13T04:51:03;17.90;71.80
77613;DHT22;66777;52.282;5.960;2023-07-13T04:53:30;17.90;71.80
77613;DHT22;66777;52.282;5.960;2023-07-13T04:55:56;17.90;71.80
77613;DHT22;66777;52.282;5.960;2023-07-13T04:58:23;17.90;71.90
77613;DHT22;66777;52.282;5.960;2023-07-13T05:00:49;17.90;72.00
77613;DHT22;66777;52.282;5.960;2023-07-13T05:03:15;17.90;72.00
77613;DHT22;66777;52.282;5.960;2023-07-13T05:05:41;17.90;72.10
77613;DHT22;66777;52.282;5.960;2023-07-13T05:08:07;17.90;72.20
77613;DHT22;66777;52.282;5.960;2023-07-13T05:10:34;18.00;72.20
77613;DHT22;66777;52.282;5.960;2023-07-13T05:13:00;18.00;72.30
77613;DHT22;66777;52.282;5.960;2023-07-13T05:15:27;17.90;72.30
77613;DHT22;66777;52.282;5.960;2023-07-13T05:17:52;17.90;72.50
77613;DHT22;66777;52.282;5.960;2023-07-13T05:20:19;17.90;72.60
77613;DHT22;66777;52.282;5.960;2023-07-13T05:22:44;18.00;72.60
77613;DHT22;66777;52.282;5.960;2023-07-13T05:25:13;18.00;72.60
77613;DHT22;66777;52.282;5.960;2023-07-13T05:27:39;18.00;72.70
77613;DHT22;66777;52.282;5.960;2023-07-13T05:30:05;18.00;72.70
77613;DHT22;66777;52.282;5.960;2023-07-13T05:32:31;18.00;72.80
77613;DHT22;66777;52.282;5.960;2023-07-13T05:34:57;18.00;72.80
77613;DHT22;66777;52.282;5.960;2023-07-13T05:37:22;18.00;73.00
77613;DHT22;66777;52.282;5.960;2023-07-13T05:39:49;18.00;73.00
77613;DHT22;66777;52.282;5.960;2023-07-13T05:42:14;18.00;73.20
77613;DHT22;66777;52.282;5.960;2023-07-13T05:44:40;18.00;73.30
77613;DHT22;66777;52.282;5.960;2023-07-13T05:47:06;18.10;73.40
77613;DHT22;66777;52.282;5.960;2023-07-13T05:49:32;18.00;73.50
77613;DHT22;66777;52.282;5.960;2023-07-13T05:51:57;18.10;73.60
77613;DHT22;66777;52.282;5.960;2023-07-13T05:54:23;18.10;73.80
77613;DHT22;66777;52.282;5.960;2023-07-13T05:56:49;18.10;73.80
77613;DHT22;66777;52.282;5.960;2023-07-13T05:59:14;18.20;73.80
77613;DHT22;66777;52.282;5.960;2023-07-13T06:01:41;18.20;73.90
77613;DHT22;66777;52.282;5.960;2023-07-13T06:04:07;18.30;74.00
77613;DHT22;66777;52.282;5.960;2023-07-13T06:06:32;18.30;74.00
77613;DHT22;66777;52.282;5.960;2023-07-13T06:08:58;18.30;74.20
77613;DHT22;66777;52.282;5.960;2023-07-13T06:11:26;18.40;74.30
77613;DHT22;66777;52.282;5.960;2023-07-13T06:13:53;18.40;74.30
77613;DHT22;66777;52.282;5.960;2023-07-13T06:16:19;18.40;74.30
77613;DHT22;66777;52.282;5.960;2023-07-13T06:18:45;18.50;74.40
77613;DHT22;66777;52.282;5.960;2023-07-13T06:21:15;18.50;74.50
77613;DHT22;66777;52.282;5.960;2023-07-13T06:23:41;18.50;74.60
77613;DHT22;66777;52.282;5.960;2023-07-13T06:26:08;18.50;74.60
77613;DHT22;66777;52.282;5.960;2023-07-13T06:28:35;18.60;74.60
77613;DHT22;66777;52.282;5.960;2023-07-13T06:31:01;18.60;74.70
77613;DHT22;66777;52.282;5.960;2023-07-13T06:33:27;18.60;74.70
77613;DHT22;66777;52.282;5.960;2023-07-13T06:35:52;18.70;74.80
77613;DHT22;66777;52.282;5.960;2023-07-13T06:38:20;18.80;74.70
77613;DHT22;66777;52.282;5.960;2023-07-13T06:40:46;18.80;74.70
77613;DHT22;66777;52.282;5.960;2023-07-13T06:43:11;18.80;74.60
77613;DHT22;66777;52.282;5.960;2023-07-13T06:45:44;18.80;74.70
77613;DHT22;66777;52.282;5.960;2023-07-13T06:48:11;18.90;74.70
77613;DHT22;66777;52.282;5.960;2023-07-13T06:50:37;18.90;74.70
77613;DHT22;66777;52.282;5.960;2023-07-13T06:53:03;18.90;74.70
77613;DHT22;66777;52.282;5.960;2023-07-13T06:55:28;19.00;74.70
77613;DHT22;66777;52.282;5.960;2023-07-13T06:57:54;19.00;74.60
77613;DHT22;66777;52.282;5.960;2023-07-13T07:00:20;19.00;74.60
77613;DHT22;66777;52.282;5.960;2023-07-13T07:02:46;19.00;74.60
77613;DHT22;66777;52.282;5.960;2023-07-13T07:05:32;19.00;74.50
77613;DHT22;66777;52.282;5.960;2023-07-13T07:07:59;19.00;74.60
77613;DHT22;66777;52.282;5.960;2023-07-13T07:10:25;19.10;74.60
77613;DHT22;66777;52.282;5.960;2023-07-13T07:12:51;19.10;74.50
77613;DHT22;66777;52.282;5.960;2023-07-13T07:15:17;19.10;74.50
77613;DHT22;66777;52.282;5.960;2023-07-13T07:17:43;19.20;74.40
77613;DHT22;66777;52.282;5.960;2023-07-13T07:20:10;19.20;74.50
77613;DHT22;66777;52.282;5.960;2023-07-13T07:22:36;19.30;74.40
77613;DHT22;66777;52.282;5.960;2023-07-13T07:25:01;19.30;74.30
77613;DHT22;66777;52.282;5.960;2023-07-13T07:27:27;19.30;74.30
77613;DHT22;66777;52.282;5.960;2023-07-13T07:29:53;19.30;74.30
77613;DHT22;66777;52.282;5.960;2023-07-13T07:32:19;19.40;74.10
77613;DHT22;66777;52.282;5.960;2023-07-13T07:34:45;19.40;74.10
77613;DHT22;66777;52.282;5.960;2023-07-13T07:37:13;19.40;73.90
77613;DHT22;66777;52.282;5.960;2023-07-13T07:39:39;19.50;73.80
77613;DHT22;66777;52.282;5.960;2023-07-13T07:42:05;19.50;73.70
77613;DHT22;66777;52.282;5.960;2023-07-13T07:44:31;19.50;73.60
77613;DHT22;66777;52.282;5.960;2023-07-13T07:46:57;19.50;73.60
77613;DHT22;66777;52.282;5.960;2023-07-13T07:49:23;19.70;73.50
77613;DHT22;66777;52.282;5.960;2023-07-13T07:51:49;19.70;73.40
77613;DHT22;66777;52.282;5.960;2023-07-13T07:54:16;19.70;73.30
77613;DHT22;66777;52.282;5.960;2023-07-13T07:56:42;19.70;73.30
77613;DHT22;66777;52.282;5.960;2023-07-13T07:59:07;19.70;73.10
77613;DHT22;66777;52.282;5.960;2023-07-13T08:01:33;19.80;73.00
77613;DHT22;66777;52.282;5.960;2023-07-13T08:03:59;19.80;73.00
77613;DHT22;66777;52.282;5.960;2023-07-13T08:06:25;19.90;72.60
77613;DHT22;66777;52.282;5.960;2023-07-13T08:08:50;19.90;72.60
77613;DHT22;66777;52.282;5.960;2023-07-13T08:11:16;19.90;72.60
77613;DHT22;66777;52.282;5.960;2023-07-13T08:13:42;20.00;72.50
77613;DHT22;66777;52.282;5.960;2023-07-13T08:16:08;20.00;72.30
77613;DHT22;66777;52.282;5.960;2023-07-13T08:18:34;20.10;72.30
77613;DHT22;66777;52.282;5.960;2023-07-13T08:21:04;20.10;72.30
77613;DHT22;66777;52.282;5.960;2023-07-13T08:23:30;20.20;72.10
77613;DHT22;66777;52.282;5.960;2023-07-13T08:25:56;20.30;71.90
77613;DHT22;66777;52.282;5.960;2023-07-13T08:28:22;20.30;71.80
77613;DHT22;66777;52.282;5.960;2023-07-13T08:30:48;20.20;72.00
77613;DHT22;66777;52.282;5.960;2023-07-13T08:33:18;20.10;72.50
77613;DHT22;66777;52.282;5.960;2023-07-13T08:35:48;20.10;73.10
77613;DHT22;66777;52.282;5.960;2023-07-13T08:38:14;20.00;73.70
77613;DHT22;66777;52.282;5.960;2023-07-13T08:40:41;20.00;74.20
77613;DHT22;66777;52.282;5.960;2023-07-13T08:43:30;20.00;74.60
77613;DHT22;66777;52.282;5.960;2023-07-13T08:46:07;20.00;75.00
77613;DHT22;66777;52.282;5.960;2023-07-13T08:48:46;20.00;75.30
77613;DHT22;66777;52.282;5.960;2023-07-13T08:51:27;20.00;75.40
77613;DHT22;66777;52.282;5.960;2023-07-13T08:54:02;20.00;75.50
77613;DHT22;66777;52.282;5.960;2023-07-13T08:56:30;20.10;75.50
77613;DHT22;66777;52.282;5.960;2023-07-13T08:59:02;20.10;75.50
77613;DHT22;66777;52.282;5.960;2023-07-13T09:05:22;20.30;75.10
77613;DHT22;66777;52.282;5.960;2023-07-13T09:10:20;20.30;75.00
77613;DHT22;66777;52.282;5.960;2023-07-13T09:15:29;20.30;75.10
77613;DHT22;66777;52.282;5.960;2023-07-13T09:20:51;20.50;74.40
77613;DHT22;66777;52.282;5.960;2023-07-13T09:23:24;20.50;74.10
77613;DHT22;66777;52.282;5.960;2023-07-13T09:25:58;20.50;73.90
77613;DHT22;66777;52.282;5.960;2023-07-13T09:28:29;20.40;73.70
77613;DHT22;66777;52.282;5.960;2023-07-13T09:33:41;20.40;73.50
77613;DHT22;66777;52.282;5.960;2023-07-13T09:36:31;20.40;73.40
77613;DHT22;66777;52.282;5.960;2023-07-13T09:47:17;20.30;73.40
77613;DHT22;66777;52.282;5.960;2023-07-13T09:49:43;20.10;73.70
77613;DHT22;66777;52.282;5.960;2023-07-13T09:52:15;20.00;74.20
77613;DHT22;66777;52.282;5.960;2023-07-13T09:54:45;19.80;75.00
77613;DHT22;66777;52.282;5.960;2023-07-13T09:57:15;19.70;75.80
77613;DHT22;66777;52.282;5.960;2023-07-13T09:59:44;19.60;76.40
77613;DHT22;66777;52.282;5.960;2023-07-13T10:02:34;19.60;76.80
77613;DHT22;66777;52.282;5.960;2023-07-13T10:05:06;19.70;77.40
77613;DHT22;66777;52.282;5.960;2023-07-13T10:07:39;19.70;77.70
77613;DHT22;66777;52.282;5.960;2023-07-13T10:10:15;19.90;78.30
77613;DHT22;66777;52.282;5.960;2023-07-13T10:12:41;20.00;78.60
77613;DHT22;66777;52.282;5.960;2023-07-13T10:15:17;20.00;78.90
77613;DHT22;66777;52.282;5.960;2023-07-13T10:17:44;20.20;78.50
77613;DHT22;66777;52.282;5.960;2023-07-13T10:20:10;20.30;78.20
77613;DHT22;66777;52.282;5.960;2023-07-13T10:23:02;20.40;78.10
77613;DHT22;66777;52.282;5.960;2023-07-13T10:25:33;20.50;77.20
77613;DHT22;66777;52.282;5.960;2023-07-13T10:28:11;20.60;76.80
77613;DHT22;66777;52.282;5.960;2023-07-13T10:30:41;20.70;76.70
77613;DHT22;66777;52.282;5.960;2023-07-13T10:33:12;20.90;76.50
77613;DHT22;66777;52.282;5.960;2023-07-13T10:35:41;21.00;75.30
77613;DHT22;66777;52.282;5.960;2023-07-13T10:38:12;21.10;74.80
77613;DHT22;66777;52.282;5.960;2023-07-13T10:40:41;21.20;74.40
77613;DHT22;66777;52.282;5.960;2023-07-13T10:43:18;21.30;74.30
77613;DHT22;66777;52.282;5.960;2023-07-13T10:45:45;21.30;73.90
77613;DHT22;66777;52.282;5.960;2023-07-13T10:48:14;21.20;74.00
77613;DHT22;66777;52.282;5.960;2023-07-13T10:50:42;21.10;73.20
77613;DHT22;66777;52.282;5.960;2023-07-13T10:53:30;21.10;73.00
77613;DHT22;66777;52.282;5.960;2023-07-13T10:58:29;21.30;71.40
77613;DHT22;66777;52.282;5.960;2023-07-13T11:03:34;21.40;71.30
77613;DHT22;66777;52.282;5.960;2023-07-13T11:14:00;21.90;70.10
77613;DHT22;66777;52.282;5.960;2023-07-13T11:16:46;22.00;69.50
77613;DHT22;66777;52.282;5.960;2023-07-13T11:24:51;22.10;67.50
77613;DHT22;66777;52.282;5.960;2023-07-13T11:27:45;22.10;67.30
77613;DHT22;66777;52.282;5.960;2023-07-13T11:33:17;22.40;66.50
77613;DHT22;66777;52.282;5.960;2023-07-13T11:36:05;22.60;66.30
77613;DHT22;66777;52.282;5.960;2023-07-13T11:41:18;22.80;65.20
77613;DHT22;66777;52.282;5.960;2023-07-13T11:43:45;22.70;65.50
77613;DHT22;66777;52.282;5.960;2023-07-13T11:46:25;22.60;65.80
77613;DHT22;66777;52.282;5.960;2023-07-13T11:48:52;22.60;64.90
77613;DHT22;66777;52.282;5.960;2023-07-13T11:51:22;22.50;65.00
77613;DHT22;66777;52.282;5.960;2023-07-13T11:53:50;22.50;65.00
77613;DHT22;66777;52.282;5.960;2023-07-13T11:56:17;22.40;64.90
77613;DHT22;66777;52.282;5.960;2023-07-13T11:58:43;22.30;64.80
77613;DHT22;66777;52.282;5.960;2023-07-13T12:01:17;22.10;64.90
77613;DHT22;66777;52.282;5.960;2023-07-13T12:03:44;22.00;65.00
77613;DHT22;66777;52.282;5.960;2023-07-13T12:06:27;21.90;65.80
77613;DHT22;66777;52.282;5.960;2023-07-13T12:08:56;21.70;66.60
77613;DHT22;66777;52.282;5.960;2023-07-13T12:11:23;21.50;67.40
77613;DHT22;66777;52.282;5.960;2023-07-13T12:13:48;21.30;68.10
77613;DHT22;66777;52.282;5.960;2023-07-13T12:16:29;21.20;68.60
77613;DHT22;66777;52.282;5.960;2023-07-13T12:18:56;21.20;69.30
77613;DHT22;66777;52.282;5.960;2023-07-13T12:21:32;21.40;69.50
77613;DHT22;66777;52.282;5.960;2023-07-13T12:23:58;21.60;69.80
77613;DHT22;66777;52.282;5.960;2023-07-13T12:26:24;21.90;69.50
77613;DHT22;66777;52.282;5.960;2023-07-13T12:28:53;22.10;69.30
77613;DHT22;66777;52.282;5.960;2023-07-13T12:31:41;22.30;69.00
77613;DHT22;66777;52.282;5.960;2023-07-13T12:34:19;22.50;68.50
77613;DHT22;66777;52.282;5.960;2023-07-13T12:36:58;22.70;68.20
77613;DHT22;66777;52.282;5.960;2023-07-13T12:39:38;22.80;67.70
77613;DHT22;66777;52.282;5.960;2023-07-13T12:42:24;22.80;67.30
77613;DHT22;66777;52.282;5.960;2023-07-13T12:45:02;22.80;67.20
77613;DHT22;66777;52.282;5.960;2023-07-13T12:47:28;22.90;67.30
77613;DHT22;66777;52.282;5.960;2023-07-13T12:49:59;23.00;67.10
77613;DHT22;66777;52.282;5.960;2023-07-13T12:52:33;23.20;66.60
77613;DHT22;66777;52.282;5.960;2023-07-13T12:55:04;23.30;66.00
77613;DHT22;66777;52.282;5.960;2023-07-13T12:57:31;23.20;66.20
77613;DHT22;66777;52.282;5.960;2023-07-13T12:59:56;23.20;66.00
77613;DHT22;66777;52.282;5.960;2023-07-13T13:02:32;23.10;65.70
77613;DHT22;66777;52.282;5.960;2023-07-13T13:05:01;23.00;65.60
77613;DHT22;66777;52.282;5.960;2023-07-13T13:07:28;23.00;65.80
77613;DHT22;66777;52.282;5.960;2023-07-13T13:09:55;22.90;65.70
77613;DHT22;66777;52.282;5.960;2023-07-13T13:12:22;22.90;65.50
77613;DHT22;66777;52.282;5.960;2023-07-13T13:14:49;22.80;65.70
77613;DHT22;66777;52.282;5.960;2023-07-13T13:17:20;22.80;65.80
77613;DHT22;66777;52.282;5.960;2023-07-13T13:19:47;22.70;65.20
77613;DHT22;66777;52.282;5.960;2023-07-13T13:22:13;22.70;64.90
77613;DHT22;66777;52.282;5.960;2023-07-13T13:24:39;22.90;64.30
77613;DHT22;66777;52.282;5.960;2023-07-13T13:27:05;23.00;64.00
77613;DHT22;66777;52.282;5.960;2023-07-13T13:29:38;23.20;63.80
77613;DHT22;66777;52.282;5.960;2023-07-13T13:32:04;23.40;63.50
77613;DHT22;66777;52.282;5.960;2023-07-13T13:34:31;23.50;62.80
77613;DHT22;66777;52.282;5.960;2023-07-13T13:36:57;23.50;62.60
77613;DHT22;66777;52.282;5.960;2023-07-13T13:39:33;23.40;62.50
77613;DHT22;66777;52.282;5.960;2023-07-13T13:41:59;23.30;62.60
77613;DHT22;66777;52.282;5.960;2023-07-13T13:44:25;23.20;62.60
77613;DHT22;66777;52.282;5.960;2023-07-13T13:46:53;23.10;62.50
77613;DHT22;66777;52.282;5.960;2023-07-13T13:49:23;23.00;62.60
77613;DHT22;66777;52.282;5.960;2023-07-13T13:51:49;22.90;62.70
77613;DHT22;66777;52.282;5.960;2023-07-13T13:54:18;22.80;62.70
77613;DHT22;66777;52.282;5.960;2023-07-13T13:56:45;22.90;62.50
77613;DHT22;66777;52.282;5.960;2023-07-13T13:59:12;22.90;62.60
77613;DHT22;66777;52.282;5.960;2023-07-13T14:01:39;22.80;62.30
77613;DHT22;66777;52.282;5.960;2023-07-13T14:04:06;22.70;62.10
77613;DHT22;66777;52.282;5.960;2023-07-13T14:06:33;22.70;62.10
77613;DHT22;66777;52.282;5.960;2023-07-13T14:09:02;22.70;61.90
77613;DHT22;66777;52.282;5.960;2023-07-13T14:11:29;23.00;61.30
77613;DHT22;66777;52.282;5.960;2023-07-13T14:13:58;23.20;60.70
77613;DHT22;66777;52.282;5.960;2023-07-13T14:16:29;23.10;60.60
77613;DHT22;66777;52.282;5.960;2023-07-13T14:18:59;23.00;60.80
77613;DHT22;66777;52.282;5.960;2023-07-13T14:21:27;22.80;61.00
77613;DHT22;66777;52.282;5.960;2023-07-13T14:23:53;22.90;61.10
77613;DHT22;66777;52.282;5.960;2023-07-13T14:26:21;23.10;60.70
77613;DHT22;66777;52.282;5.960;2023-07-13T14:28:53;23.40;60.50
77613;DHT22;66777;52.282;5.960;2023-07-13T14:31:20;23.70;60.00
77613;DHT22;66777;52.282;5.960;2023-07-13T14:33:46;23.90;59.60
77613;DHT22;66777;52.282;5.960;2023-07-13T14:36:31;24.00;59.40
77613;DHT22;66777;52.282;5.960;2023-07-13T14:38:59;24.10;59.00
77613;DHT22;66777;52.282;5.960;2023-07-13T14:41:26;24.00;59.10
77613;DHT22;66777;52.282;5.960;2023-07-13T14:43:52;23.70;59.40
77613;DHT22;66777;52.282;5.960;2023-07-13T14:46:30;23.50;59.60
77613;DHT22;66777;52.282;5.960;2023-07-13T14:49:27;23.30;59.90
77613;DHT22;66777;52.282;5.960;2023-07-13T14:51:56;23.50;59.80
77613;DHT22;66777;52.282;5.960;2023-07-13T14:54:23;23.70;59.60
77613;DHT22;66777;52.282;5.960;2023-07-13T14:56:49;24.00;59.00
77613;DHT22;66777;52.282;5.960;2023-07-13T14:59:16;24.20;58.20
77613;DHT22;66777;52.282;5.960;2023-07-13T15:01:44;24.10;58.10
77613;DHT22;66777;52.282;5.960;2023-07-13T15:04:11;23.90;58.20
77613;DHT22;66777;52.282;5.960;2023-07-13T15:06:55;23.90;58.00
77613;DHT22;66777;52.282;5.960;2023-07-13T15:09:22;23.80;58.20
77613;DHT22;66777;52.282;5.960;2023-07-13T15:11:52;23.70;58.20
77613;DHT22;66777;52.282;5.960;2023-07-13T15:14:17;23.60;58.50
77613;DHT22;66777;52.282;5.960;2023-07-13T15:16:44;23.60;58.60
77613;DHT22;66777;52.282;5.960;2023-07-13T15:19:11;23.80;58.20
77613;DHT22;66777;52.282;5.960;2023-07-13T15:21:37;24.00;57.90
77613;DHT22;66777;52.282;5.960;2023-07-13T15:24:03;24.20;57.70
77613;DHT22;66777;52.282;5.960;2023-07-13T15:26:29;24.40;57.30
77613;DHT22;66777;52.282;5.960;2023-07-13T15:28:55;24.60;57.10
77613;DHT22;66777;52.282;5.960;2023-07-13T15:31:23;24.60;56.80
77613;DHT22;66777;52.282;5.960;2023-07-13T15:33:51;24.70;56.50
77613;DHT22;66777;52.282;5.960;2023-07-13T15:36:18;24.80;56.20
77613;DHT22;66777;52.282;5.960;2023-07-13T15:38:46;24.90;56.00
77613;DHT22;66777;52.282;5.960;2023-07-13T15:41:21;25.00;55.90
77613;DHT22;66777;52.282;5.960;2023-07-13T15:43:52;25.00;55.50
77613;DHT22;66777;52.282;5.960;2023-07-13T15:46:19;25.10;55.10
77613;DHT22;66777;52.282;5.960;2023-07-13T15:48:48;25.20;54.70
77613;DHT22;66777;52.282;5.960;2023-07-13T15:51:28;25.20;54.70
77613;DHT22;66777;52.282;5.960;2023-07-13T15:53:55;25.20;54.40
77613;DHT22;66777;52.282;5.960;2023-07-13T15:56:42;25.20;54.10
77613;DHT22;66777;52.282;5.960;2023-07-13T15:59:10;25.00;53.70
77613;DHT22;66777;52.282;5.960;2023-07-13T16:01:38;25.00;54.00
77613;DHT22;66777;52.282;5.960;2023-07-13T16:04:06;24.90;53.70
77613;DHT22;66777;52.282;5.960;2023-07-13T16:06:35;24.80;53.80
77613;DHT22;66777;52.282;5.960;2023-07-13T16:09:02;24.70;53.80
77613;DHT22;66777;52.282;5.960;2023-07-13T16:11:38;24.60;54.00
77613;DHT22;66777;52.282;5.960;2023-07-13T16:14:13;24.40;54.00
77613;DHT22;66777;52.282;5.960;2023-07-13T16:16:39;24.20;54.10
77613;DHT22;66777;52.282;5.960;2023-07-13T16:19:13;24.10;54.40
77613;DHT22;66777;52.282;5.960;2023-07-13T16:21:44;24.00;54.60
77613;DHT22;66777;52.282;5.960;2023-07-13T16:24:17;23.90;54.80
77613;DHT22;66777;52.282;5.960;2023-07-13T16:26:45;23.90;55.00
77613;DHT22;66777;52.282;5.960;2023-07-13T16:31:54;23.80;55.00